Scotchtown, New York
Current Conditions -  °F | °C
As of 4:54 AM on Wednesday 26 Nov 2014 (Local Time) from KMGJ Reporting Station
Overcast Overcast  
Wind Chill: 33°   Ceiling: 11000
Heat Index: 38°   Visibility: 10mi
Dew Point: 30°   Wind: 7mph
Humidity: 73%   Direction: 10°N
Pressure: 30.18"   Gusts: NA
Location:  41.45°N, 74.41°W
Report Text: KMGJ 260954Z AUTO 01006KT 10SM OVC110 03/M01 A3018 RMK AO2 SLP221 T00331011 TSNO
Loading
Personal Weather Stations






























Interactive Weather Map New forecast layout! Learn more

10-Day Weather Forecast

Advertisements
Track Severe Weather on mobile